West Point, NE (68788)

7:56 AM CDT on April 26, 2017 (GMT -0500)
Skywave Wireless, Inc. | | Change Station
Active Advisory: Frost Advisory

Elev 1312 ft 41.84 °N, 96.71 °W | Updated 12 seconds ago

Overcast
Overcast
34.9 °F
Feels Like 35 °F
N
0.2
Wind Variable Wind from South
Gusts 2.5 mph

Today
High -- | Low -- °F
--% Chance of Precip.
Yesterday
High -- | Low -- °F
Precip. -- in
Pressure 29.67 in
Visibility 10.0 miles
Clouds Overcast 1200 ft
Windchill 35 °F
Dew Point 29 °F
Humidity 78%
Rainfall 0.00 in
Snow Depth Not available.
6:29 AM 8:20 PM
New Moon, 0% visible
METAR KTQE 261254Z AUTO 32021KT 10SM OVC012 02/00 A2967 RMK AO2 PK WND 32029/1243 SLP047 T00220000
Pressure 29.67 in
Visibility 10.0 miles
Clouds Overcast 1200 ft
Windchill 35 °F
Dew Point 29 °F
Humidity 78%
Rainfall 0.00 in
Snow Depth Not available.
6:29 AM 8:20 PM
New Moon, 0% visible
METAR KTQE 261254Z AUTO 32021KT 10SM OVC012 02/00 A2967 RMK AO2 PK WND 32029/1243 SLP047 T00220000

Get Your Daily Forecast Email!

Thanks for signing up!

Be on the lookout for a verification email in your inbox.

You'll start receiving severe weather alerts in your inbox..

×

10-Day Weather Forecast

Almanac

Astronomy

Apr. 26, 2017 Rise Set
Actual Time
Civil Twilight
Nautical Twilight
Astronomical Twilight
Moon
Length of Visible Light
Length of Day
Tomorrow will be .
, % of the Moon is Illuminated

Today's Extremes

State Highs State Lows

Community

WunderPhotos

WunderBlog® & News

Nearby

Air Quality

  Air Quality AQ Index Pollutant
Not available.

Snow Depth

Station Depth Elevation

Earthquake Activity

City Distance Mag. Time & Date
Minimum magnitude displayed is 2.5.

Coastal Water Temperatures

Place Temperature

Stations

Nearby Weather Stations

Station Location Temp. Windchill Dew Point Humidity Wind Precip. Elev Updated Type
                   

Watches & Warnings

Frost Advisory
Issued: 3:54 AM CDT Apr. 26, 2017 – National Weather Service

... Frost advisory in effect from midnight tonight to 9 am CDT
Thursday...

The National Weather Service in Omaha/valley has issued a frost
advisory, which is in effect from midnight tonight to 9 am CDT
Thursday.

* Temperatures... overnight lows are forecast between 29 and 35
degrees in most areas, with the warmer temperatures across
western Iowa and extreme southeast Nebraska.

* Impacts... sensitive outdoor vegetation may be damaged or killed
if left unprotected.

* Uncertainty... the most likely areas for widespread frost is west
of a line from Seward to Fremont to Onawa, Iowa. Patchy frost
is possible east of this line. Despite cold temperatures, winds
may stay strong enough across western Iowa and extreme southeast
Nebraska to prevent much frost formation.

Precautionary/preparedness actions...

A frost advisory means that widespread frost is expected.
Sensitive outdoor plants may be killed if left uncovered.